Terminal Aerodrome Forecast
Issued by NWS

Home | Current Version | Previous Version | Graphics & Text | Print | Product List | Glossary On
Versions: 1 2 3 4 5 6 7 8 9 10 11 12 13 14 15
000
FTUS43 KIWX 240500
TAFSBN
TAF
KSBN 240520Z 2406/2506 00000KT P6SM SCT250
     FM241200 16006KT P6SM BKN150
     FM241800 17009KT P6SM BKN080=

USA.gov is the U.S. government's official web portal to all federal, state and local government web resources and services.